East Eldorado, Illinois
Current Conditions -  °F | °C
As of 10:15 AM on Wednesday 26 Nov 2014 (Local Time) from KHSB Reporting Station
Clear Clear  
Wind Chill: 28°   Ceiling: Unl
Heat Index: 34°   Visibility: 10mi
Dew Point: 31°   Wind: 7mph
Humidity: 90%   Direction: 130°SE
Pressure: 30.13"   Gusts: NA
Location:  37.8101°N, 88.4411°W
Report Text: KHSB 261615Z AUTO 13006KT 10SM CLR 01/00 A3013 RMK AO2 T00111003
Loading
Personal Weather Stations






























Interactive Weather Map New forecast layout! Learn more

10-Day Weather Forecast

Advertisements
Track Severe Weather on mobile